createdAt,value
2023-04-19T00:00:34.404Z,99.90
2023-04-19T00:05:40.104Z,99.90
2023-04-19T00:10:48.357Z,99.90
2023-04-19T00:15:53.911Z,99.90
2023-04-19T00:20:59.597Z,99.90
2023-04-19T00:26:05.582Z,99.90
2023-04-19T00:31:11.099Z,99.90
2023-04-19T00:36:17.573Z,99.90
2023-04-19T00:41:25.590Z,99.90
2023-04-19T00:46:32.180Z,99.90
2023-04-19T00:51:38.269Z,99.90
2023-04-19T00:56:46.765Z,99.90
2023-04-19T01:01:53.544Z,99.90
2023-04-19T01:07:03.182Z,99.90
2023-04-19T01:12:09.765Z,99.90
2023-04-19T01:17:16.992Z,99.90
2023-04-19T01:22:24.555Z,99.90
2023-04-19T01:27:30.314Z,99.90
2023-04-19T01:32:35.846Z,99.90
2023-04-19T01:37:41.399Z,99.90
2023-04-19T01:42:48.155Z,99.90
2023-04-19T01:47:54.186Z,99.90
2023-04-19T01:53:00.180Z,99.90
2023-04-19T01:58:05.661Z,99.90
2023-04-19T02:03:11.717Z,99.90
2023-04-19T02:08:17.463Z,99.90
2023-04-19T02:13:23.124Z,99.90
2023-04-19T02:18:27.833Z,99.90
2023-04-19T02:23:34.560Z,99.90
2023-04-19T02:28:44.639Z,99.90
2023-04-19T02:33:51.340Z,99.90
2023-04-19T02:38:56.526Z,99.90
2023-04-19T02:44:04.987Z,99.90
2023-04-19T02:49:12.160Z,99.90
2023-04-19T02:54:17.818Z,99.90
2023-04-19T02:59:24.162Z,99.90
2023-04-19T03:04:30.852Z,99.90
2023-04-19T03:09:37.184Z,99.90
2023-04-19T03:14:42.479Z,99.90
2023-04-19T03:19:48.864Z,99.90
2023-04-19T03:24:54.797Z,99.90
2023-04-19T03:30:01.630Z,99.90
2023-04-19T03:35:09.065Z,99.90
2023-04-19T03:40:15.024Z,99.90
2023-04-19T03:45:21.054Z,99.90
2023-04-19T03:50:27.202Z,99.90
2023-04-19T03:55:34.615Z,99.90
2023-04-19T04:00:40.338Z,99.90
2023-04-19T04:05:45.999Z,99.90
2023-04-19T04:10:52.012Z,99.90
2023-04-19T04:15:59.891Z,99.90
2023-04-19T04:21:09.392Z,99.90
2023-04-19T04:26:19.546Z,99.90
2023-04-19T04:31:37.923Z,99.90
2023-04-19T04:36:51.135Z,99.90
2023-04-19T04:42:02.022Z,99.90
2023-04-19T04:47:07.312Z,99.90
2023-04-19T04:52:19.906Z,99.90
2023-04-19T04:57:49.694Z,99.90
2023-04-19T05:03:15.663Z,99.90
2023-04-19T05:08:28.584Z,99.90
2023-04-19T05:13:42.337Z,99.90
2023-04-19T05:18:51.803Z,99.90
2023-04-19T05:23:58.395Z,99.90
2023-04-19T05:29:04.050Z,99.90
2023-04-19T05:34:22.050Z,99.90
2023-04-19T05:39:29.045Z,99.90
2023-04-19T05:44:36.800Z,99.90
2023-04-19T05:49:43.728Z,99.90
2023-04-19T05:55:00.955Z,99.90
2023-04-19T06:00:07.562Z,99.90
2023-04-19T06:05:19.210Z,99.90
2023-04-19T06:10:29.011Z,99.90
2023-04-19T06:15:41.486Z,99.90
2023-04-19T06:20:46.917Z,99.90
2023-04-19T06:25:52.322Z,99.90
2023-04-19T06:30:58.062Z,99.90
2023-04-19T06:36:06.968Z,99.90
2023-04-19T06:41:12.598Z,99.90
2023-04-19T06:46:21.258Z,99.90
2023-04-19T06:51:27.501Z,99.90
2023-04-19T06:56:47.714Z,99.90
2023-04-19T07:01:53.889Z,99.90
2023-04-19T07:07:00.156Z,99.30
2023-04-19T07:12:06.926Z,99.90
2023-04-19T07:17:12.710Z,95.30
2023-04-19T07:22:19.592Z,96.80
2023-04-19T07:27:25.962Z,95.60
2023-04-19T07:32:33.216Z,93.20
2023-04-19T07:37:39.235Z,94.40
2023-04-19T07:42:46.515Z,94.10
2023-04-19T07:47:52.994Z,94.20
2023-04-19T07:53:02.791Z,94.70
2023-04-19T07:58:14.392Z,95.20
2023-04-19T08:03:20.878Z,94.20
2023-04-19T08:08:27.953Z,90.80
2023-04-19T08:13:34.302Z,94.00
2023-04-19T08:18:40.723Z,92.10
2023-04-19T08:23:48.538Z,96.00
2023-04-19T08:29:06.236Z,95.00
2023-04-19T08:34:12.488Z,95.10
2023-04-19T08:39:29.667Z,99.00
2023-04-19T08:44:53.803Z,99.60
2023-04-19T08:50:24.185Z,98.60
2023-04-19T08:55:40.087Z,99.90
2023-04-19T09:00:49.621Z,99.90
2023-04-19T09:05:55.935Z,99.90
2023-04-19T09:11:03.908Z,99.90
2023-04-19T09:16:25.446Z,99.90
2023-04-19T09:21:35.830Z,99.90
2023-04-19T09:26:42.703Z,99.90
2023-04-19T09:32:00.758Z,99.90
2023-04-19T09:37:27.937Z,99.90
2023-04-19T09:48:05.913Z,99.90
2023-04-19T09:53:13.272Z,99.90
2023-04-19T09:58:20.978Z,99.90
2023-04-19T10:03:31.756Z,99.90
2023-04-19T10:08:37.761Z,99.90
2023-04-19T10:13:46.757Z,99.90
2023-04-19T10:18:53.918Z,99.90
2023-04-19T10:24:01.385Z,99.90
2023-04-19T10:29:07.888Z,99.90
2023-04-19T10:34:15.882Z,99.90
2023-04-19T10:39:43.741Z,99.90
2023-04-19T10:45:38.085Z,99.90
2023-04-19T10:56:43.715Z,99.90
2023-04-19T11:01:58.160Z,99.90
2023-04-19T11:07:10.674Z,99.90
2023-04-19T11:12:18.945Z,99.90
2023-04-19T11:17:34.589Z,99.90
2023-04-19T11:23:44.170Z,99.90
2023-04-19T11:28:50.783Z,99.90
2023-04-19T11:34:04.966Z,99.90
2023-04-19T11:39:48.533Z,99.90
2023-04-19T11:51:19.076Z,99.90
2023-04-19T11:56:50.800Z,99.90
2023-04-19T12:02:26.852Z,99.90
2023-04-19T12:08:00.857Z,99.90
2023-04-19T12:13:47.107Z,99.90
2023-04-19T12:19:18.391Z,99.90
2023-04-19T12:24:29.495Z,99.90
2023-04-19T12:29:40.826Z,99.90
2023-04-19T12:34:54.587Z,99.90
2023-04-19T12:40:05.428Z,99.90
2023-04-19T12:45:22.960Z,99.90
2023-04-19T12:56:14.300Z,99.90
2023-04-19T13:01:52.531Z,99.90
2023-04-19T13:07:28.209Z,99.90
2023-04-19T13:13:01.066Z,99.90
2023-04-19T13:18:32.250Z,99.90
2023-04-19T13:24:26.151Z,99.90
2023-04-19T13:29:47.660Z,99.90
2023-04-19T13:35:43.452Z,99.90
2023-04-19T13:42:01.602Z,99.90
2023-04-19T13:53:24.401Z,99.90
2023-04-19T13:58:37.247Z,99.90
2023-04-19T14:03:50.845Z,99.90
2023-04-19T14:08:59.354Z,99.90
2023-04-19T14:14:10.269Z,99.90
2023-04-19T14:19:26.822Z,99.90
2023-04-19T14:24:35.292Z,99.90
2023-04-19T14:29:56.330Z,99.90
2023-04-19T14:35:09.298Z,99.90
2023-04-19T14:40:28.575Z,99.90
2023-04-19T14:45:37.328Z,99.90
2023-04-19T14:50:46.210Z,99.90
2023-04-19T14:55:56.593Z,99.90
2023-04-19T15:01:17.217Z,99.90
2023-04-19T15:06:23.932Z,99.90
2023-04-19T15:11:36.189Z,99.90
2023-04-19T15:16:42.333Z,99.90
2023-04-19T15:21:53.596Z,99.90
2023-04-19T15:27:07.018Z,99.90
2023-04-19T15:32:14.134Z,99.90
2023-04-19T15:37:20.835Z,99.90
2023-04-19T15:42:31.089Z,99.90
2023-04-19T15:47:38.221Z,99.90
2023-04-19T15:52:47.999Z,99.90
2023-04-19T15:58:00.443Z,99.90
2023-04-19T16:03:21.668Z,99.90
2023-04-19T16:08:38.202Z,99.90
2023-04-19T16:13:46.721Z,99.90
2023-04-19T16:18:53.450Z,99.90
2023-04-19T16:24:02.948Z,99.90
2023-04-19T16:29:09.761Z,99.90
2023-04-19T16:34:15.992Z,99.90
2023-04-19T16:39:22.454Z,99.90
2023-04-19T16:44:29.069Z,99.90
2023-04-19T16:49:35.314Z,99.90
2023-04-19T16:54:45.466Z,99.90
2023-04-19T16:59:54.120Z,99.90
2023-04-19T17:05:02.730Z,99.90
2023-04-19T17:10:09.728Z,99.90
2023-04-19T17:21:08.119Z,99.90
2023-04-19T17:26:14.265Z,99.90
2023-04-19T17:31:25.796Z,99.90
2023-04-19T17:36:33.463Z,99.90
2023-04-19T17:41:39.601Z,99.90
2023-04-19T17:46:57.185Z,99.90
2023-04-19T17:52:03.783Z,99.90
2023-04-19T17:57:10.070Z,99.90
2023-04-19T18:02:15.953Z,99.90
2023-04-19T18:07:22.205Z,99.90
2023-04-19T18:12:28.460Z,99.90
2023-04-19T18:17:34.384Z,99.90
2023-04-19T18:22:40.207Z,99.90
2023-04-19T18:27:45.374Z,99.90
2023-04-19T18:32:51.585Z,99.90
2023-04-19T18:37:57.877Z,99.90
2023-04-19T18:43:03.410Z,99.90
2023-04-19T18:48:09.349Z,99.90
2023-04-19T18:53:14.979Z,99.90
2023-04-19T18:58:21.009Z,99.90
2023-04-19T19:08:35.445Z,99.90
2023-04-19T19:13:42.441Z,99.90
2023-04-19T19:18:48.261Z,99.90
2023-04-19T19:23:57.970Z,99.90
2023-04-19T19:29:05.816Z,99.90
2023-04-19T19:34:27.172Z,99.90
2023-04-19T19:39:36.735Z,99.90
2023-04-19T19:44:42.697Z,99.90
2023-04-19T19:50:21.338Z,99.90
2023-04-19T19:55:15.451Z,99.90
2023-04-19T20:05:30.960Z,99.90
2023-04-19T20:10:37.303Z,99.90
2023-04-19T20:15:43.974Z,99.90
2023-04-19T20:20:49.897Z,99.90
2023-04-19T20:25:55.430Z,99.90
2023-04-19T20:31:01.131Z,99.90
2023-04-19T20:36:06.395Z,99.90
2023-04-19T20:41:12.662Z,99.90
2023-04-19T20:46:18.781Z,99.90
2023-04-19T20:51:24.616Z,99.90
2023-04-19T20:56:30.604Z,99.90
2023-04-19T21:01:36.683Z,99.90
2023-04-19T21:06:43.223Z,99.90
2023-04-19T21:11:49.437Z,99.90
2023-04-19T21:16:54.850Z,99.90
2023-04-19T21:22:01.502Z,99.90
2023-04-19T21:27:07.207Z,99.90
2023-04-19T21:32:14.055Z,99.90
2023-04-19T21:37:21.580Z,99.90
2023-04-19T21:42:27.760Z,99.90
2023-04-19T21:47:33.583Z,99.90
2023-04-19T21:52:38.786Z,99.90
2023-04-19T21:57:45.344Z,99.90
2023-04-19T22:02:51.436Z,99.90
2023-04-19T22:07:59.130Z,99.90
2023-04-19T22:13:06.757Z,99.90
2023-04-19T22:18:12.963Z,99.90
2023-04-19T22:23:18.823Z,99.90
2023-04-19T22:28:23.751Z,99.90
2023-04-19T22:33:29.926Z,99.90
2023-04-19T22:38:36.189Z,99.90
2023-04-19T22:43:42.596Z,99.90
2023-04-19T22:48:49.748Z,99.90
2023-04-19T22:53:55.822Z,99.90
2023-04-19T22:59:01.726Z,99.90
2023-04-19T23:04:07.604Z,99.90
2023-04-19T23:09:15.558Z,99.90
2023-04-19T23:14:23.982Z,99.90
2023-04-19T23:19:29.496Z,99.90
2023-04-19T23:24:37.621Z,99.90
2023-04-19T23:29:43.305Z,99.90
2023-04-19T23:34:49.248Z,99.90
2023-04-19T23:39:55.118Z,99.90
2023-04-19T23:45:00.989Z,99.90
2023-04-19T23:50:06.608Z,99.90
2023-04-19T23:55:12.645Z,99.90
